createdAt,value
2018-04-24T00:01:28.785Z,99.90
2018-04-24T00:03:54.886Z,99.90
2018-04-24T00:06:20.988Z,99.90
2018-04-24T00:08:47.118Z,99.90
2018-04-24T00:11:13.954Z,99.90
2018-04-24T00:13:40.083Z,99.90
2018-04-24T00:16:06.198Z,99.90
2018-04-24T00:18:32.285Z,99.90
2018-04-24T00:20:59.161Z,99.90
2018-04-24T00:23:25.987Z,99.90
2018-04-24T00:25:52.074Z,99.90
2018-04-24T00:28:18.198Z,99.90
2018-04-24T00:30:45.306Z,99.90
2018-04-24T00:33:11.433Z,99.90
2018-04-24T00:35:38.126Z,99.90
2018-04-24T00:38:04.231Z,99.90
2018-04-24T00:40:30.349Z,99.90
2018-04-24T00:42:56.458Z,99.90
2018-04-24T00:45:22.542Z,99.90
2018-04-24T00:47:48.656Z,99.90
2018-04-24T00:50:14.733Z,99.90
2018-04-24T00:52:40.861Z,99.90
2018-04-24T00:55:06.951Z,99.90
2018-04-24T00:57:33.151Z,99.90
2018-04-24T00:59:59.305Z,99.90
2018-04-24T01:02:25.392Z,99.90
2018-04-24T01:04:51.504Z,99.90
2018-04-24T01:07:17.589Z,99.90
2018-04-24T01:09:43.708Z,99.90
2018-04-24T01:12:09.817Z,99.90
2018-04-24T01:14:35.906Z,99.90
2018-04-24T01:17:02.005Z,99.90
2018-04-24T01:19:28.105Z,99.90
2018-04-24T01:21:54.968Z,99.90
2018-04-24T01:24:21.800Z,99.90
2018-04-24T01:26:47.904Z,99.90
2018-04-24T01:29:14.013Z,99.90
2018-04-24T01:31:40.837Z,99.90
2018-04-24T01:34:06.952Z,99.90
2018-04-24T01:36:33.030Z,99.90
2018-04-24T01:38:59.145Z,99.90
2018-04-24T01:41:25.263Z,99.90
2018-04-24T01:43:51.371Z,99.90
2018-04-24T01:46:17.462Z,99.90
2018-04-24T01:48:43.573Z,99.90
2018-04-24T01:51:09.653Z,99.90
2018-04-24T01:53:35.728Z,99.90
2018-04-24T01:56:01.841Z,99.90
2018-04-24T01:58:28.700Z,99.90
2018-04-24T02:00:55.537Z,99.90
2018-04-24T02:03:21.635Z,99.90
2018-04-24T02:05:47.724Z,99.90
2018-04-24T02:08:14.598Z,99.90
2018-04-24T02:10:40.687Z,99.90
2018-04-24T02:13:06.817Z,99.90
2018-04-24T02:15:32.915Z,99.90
2018-04-24T02:17:59.030Z,99.90
2018-04-24T02:20:25.857Z,99.90
2018-04-24T02:22:51.961Z,99.90
2018-04-24T02:25:18.081Z,99.90
2018-04-24T02:27:44.162Z,99.90
2018-04-24T02:30:10.272Z,99.90
2018-04-24T02:32:36.389Z,99.90
2018-04-24T02:35:03.270Z,99.90
2018-04-24T02:37:29.400Z,99.90
2018-04-24T02:39:55.554Z,99.90
2018-04-24T02:42:21.646Z,99.90
2018-04-24T02:44:47.760Z,99.90
2018-04-24T02:47:13.852Z,99.90
2018-04-24T02:49:39.974Z,99.90
2018-04-24T02:52:06.809Z,99.90
2018-04-24T02:54:32.921Z,99.90
2018-04-24T02:56:59.057Z,99.90
2018-04-24T02:59:25.197Z,99.90
2018-04-24T03:01:51.273Z,99.90
2018-04-24T03:04:18.192Z,99.90
2018-04-24T03:06:44.295Z,99.90
2018-04-24T03:09:10.432Z,99.90
2018-04-24T03:11:36.549Z,99.90
2018-04-24T03:14:02.674Z,99.90
2018-04-24T03:16:28.833Z,99.90
2018-04-24T03:18:54.893Z,99.90
2018-04-24T03:21:20.998Z,99.90
2018-04-24T03:23:47.853Z,99.90
2018-04-24T03:26:14.693Z,99.90
2018-04-24T03:28:40.814Z,99.90
2018-04-24T03:31:07.054Z,99.90
2018-04-24T03:33:33.194Z,99.90
2018-04-24T03:35:59.326Z,99.90
2018-04-24T03:38:25.438Z,99.90
2018-04-24T03:40:51.570Z,99.90
2018-04-24T03:43:17.668Z,99.90
2018-04-24T03:45:44.594Z,99.90
2018-04-24T03:48:10.740Z,99.90
2018-04-24T03:50:36.846Z,99.90
2018-04-24T03:53:02.970Z,99.90
2018-04-24T03:55:29.107Z,99.90
2018-04-24T03:57:55.930Z,99.90
2018-04-24T04:00:22.037Z,99.90
2018-04-24T04:02:48.170Z,99.90
2018-04-24T04:05:14.278Z,99.90
2018-04-24T04:07:40.385Z,99.90
2018-04-24T04:10:06.453Z,99.90
2018-04-24T04:12:32.553Z,99.90
2018-04-24T04:14:58.670Z,99.90
2018-04-24T04:17:37.274Z,99.90
2018-04-24T04:20:15.642Z,99.90
2018-04-24T04:22:55.641Z,99.90
2018-04-24T04:25:22.454Z,99.90
2018-04-24T04:27:48.562Z,99.90
2018-04-24T04:30:14.643Z,99.90
2018-04-24T04:32:40.747Z,99.90
2018-04-24T04:35:06.817Z,99.90
2018-04-24T04:37:33.102Z,99.90
2018-04-24T04:39:59.179Z,99.90
2018-04-24T04:42:25.294Z,99.90
2018-04-24T04:44:51.388Z,99.90
2018-04-24T04:47:17.450Z,99.90
2018-04-24T04:49:43.551Z,99.90
2018-04-24T04:52:09.650Z,99.90
2018-04-24T04:54:35.734Z,99.90
2018-04-24T04:57:01.854Z,99.90
2018-04-24T04:59:27.959Z,99.90
2018-04-24T05:01:54.032Z,99.90
2018-04-24T05:04:20.134Z,99.90
2018-04-24T05:06:46.242Z,99.90
2018-04-24T05:09:13.070Z,99.90
2018-04-24T05:11:39.145Z,99.90
2018-04-24T05:14:05.262Z,99.90
2018-04-24T05:16:32.098Z,99.90
2018-04-24T05:18:58.211Z,99.90
2018-04-24T05:21:24.315Z,99.90
2018-04-24T05:23:50.442Z,99.90
2018-04-24T05:26:17.262Z,99.90
2018-04-24T05:28:43.345Z,99.90
2018-04-24T05:31:09.463Z,99.90
2018-04-24T05:33:36.306Z,99.90
2018-04-24T05:36:02.431Z,99.90
2018-04-24T05:38:28.505Z,99.90
2018-04-24T05:40:55.342Z,99.90
2018-04-24T05:43:21.447Z,99.90
2018-04-24T05:45:47.548Z,99.90
2018-04-24T05:48:13.679Z,99.90
2018-04-24T05:50:40.495Z,99.90
2018-04-24T05:53:06.635Z,99.90
2018-04-24T05:55:32.721Z,99.90
2018-04-24T05:57:58.814Z,99.90
2018-04-24T06:00:24.917Z,99.90
2018-04-24T06:02:51.049Z,99.90
2018-04-24T06:05:17.183Z,99.90
2018-04-24T06:07:43.266Z,99.90
2018-04-24T06:10:09.340Z,99.90
2018-04-24T06:12:36.185Z,99.90
2018-04-24T06:15:03.054Z,99.90
2018-04-24T06:17:29.139Z,99.90
2018-04-24T06:19:55.206Z,99.90
2018-04-24T06:22:21.282Z,99.90
2018-04-24T06:24:47.433Z,99.90
2018-04-24T06:27:13.514Z,99.90
2018-04-24T06:29:39.624Z,99.90
2018-04-24T06:32:05.750Z,99.90
2018-04-24T06:34:31.894Z,99.90
2018-04-24T06:36:57.968Z,99.90
2018-04-24T06:39:24.082Z,99.90
2018-04-24T06:41:50.162Z,99.90
2018-04-24T06:44:16.359Z,99.90
2018-04-24T06:46:42.449Z,99.90
2018-04-24T06:49:09.286Z,99.90
2018-04-24T06:51:35.502Z,99.90
2018-04-24T06:54:01.583Z,99.90
2018-04-24T06:56:28.425Z,99.90
2018-04-24T06:58:55.250Z,99.90
2018-04-24T07:01:21.359Z,99.90
2018-04-24T07:03:47.433Z,99.90
2018-04-24T07:06:13.510Z,99.90
2018-04-24T07:08:40.354Z,99.90
2018-04-24T07:11:06.457Z,99.90
2018-04-24T07:13:32.567Z,99.90
2018-04-24T07:15:58.650Z,99.90
2018-04-24T07:18:24.758Z,99.90
2018-04-24T07:20:50.857Z,99.90
2018-04-24T07:23:17.666Z,99.90
2018-04-24T07:25:43.767Z,99.90
2018-04-24T07:28:09.846Z,99.90
2018-04-24T07:30:35.949Z,99.90
2018-04-24T07:33:02.036Z,99.90
2018-04-24T07:35:28.125Z,99.90
2018-04-24T07:37:54.238Z,99.90
2018-04-24T07:40:20.335Z,99.90
2018-04-24T07:42:46.409Z,99.90
2018-04-24T07:45:13.254Z,99.90
2018-04-24T07:47:40.065Z,99.90
2018-04-24T07:50:06.189Z,99.90
2018-04-24T07:52:32.263Z,99.90
2018-04-24T07:54:58.358Z,99.90
2018-04-24T07:57:24.434Z,99.90
2018-04-24T07:59:50.533Z,99.90
2018-04-24T08:02:16.606Z,99.90
2018-04-24T08:04:42.710Z,99.90
2018-04-24T08:07:08.790Z,99.90
2018-04-24T08:09:34.874Z,99.90
2018-04-24T08:12:00.972Z,99.90
2018-04-24T08:14:27.054Z,99.90
2018-04-24T08:16:53.170Z,99.90
2018-04-24T08:19:20.001Z,99.90
2018-04-24T08:21:46.103Z,99.90
2018-04-24T08:24:12.218Z,99.90
2018-04-24T08:26:38.310Z,99.90
2018-04-24T08:29:04.446Z,99.90
2018-04-24T08:31:30.543Z,99.90
2018-04-24T08:33:56.646Z,99.90
2018-04-24T08:36:23.489Z,99.90
2018-04-24T08:38:49.579Z,99.90
2018-04-24T08:41:15.759Z,99.90
2018-04-24T08:43:41.854Z,99.90
2018-04-24T08:46:07.966Z,99.90
2018-04-24T08:48:34.060Z,99.90
2018-04-24T08:51:00.166Z,99.90
2018-04-24T08:53:26.278Z,99.90
2018-04-24T08:55:53.095Z,99.90
2018-04-24T08:58:19.210Z,99.90
2018-04-24T09:00:45.299Z,99.90
2018-04-24T09:03:12.151Z,99.90
2018-04-24T09:05:38.351Z,99.90
2018-04-24T09:08:04.462Z,99.90
2018-04-24T09:10:30.554Z,99.90
2018-04-24T09:12:56.636Z,99.90
2018-04-24T09:15:22.762Z,99.90
2018-04-24T09:17:49.628Z,99.90
2018-04-24T09:20:15.726Z,99.90
2018-04-24T09:22:41.827Z,99.90
2018-04-24T09:25:07.938Z,99.90
2018-04-24T09:27:34.755Z,99.90
2018-04-24T09:30:01.735Z,99.90
2018-04-24T09:32:28.562Z,99.90
2018-04-24T09:34:54.666Z,99.90
2018-04-24T09:37:20.774Z,99.90
2018-04-24T09:39:47.610Z,99.90
2018-04-24T09:42:13.721Z,99.90
2018-04-24T09:44:39.798Z,99.90
2018-04-24T09:47:06.658Z,99.90
2018-04-24T09:49:33.544Z,99.90
2018-04-24T09:51:59.610Z,99.90
2018-04-24T09:54:25.695Z,99.90
2018-04-24T09:56:52.642Z,99.90
2018-04-24T09:59:18.634Z,99.90
2018-04-24T10:01:44.715Z,99.90
2018-04-24T10:04:11.580Z,99.90
2018-04-24T10:06:38.407Z,99.90
2018-04-24T10:09:05.477Z,99.90
2018-04-24T10:11:31.562Z,99.90
2018-04-24T10:13:57.680Z,99.90
2018-04-24T10:16:23.785Z,99.90
2018-04-24T10:18:49.890Z,99.90
2018-04-24T10:21:15.984Z,99.90
2018-04-24T10:23:42.801Z,99.90
2018-04-24T10:26:08.914Z,99.90
2018-04-24T10:28:35.065Z,99.90
2018-04-24T10:31:01.185Z,99.90
2018-04-24T10:33:27.265Z,99.90
2018-04-24T10:35:53.402Z,99.90
2018-04-24T10:38:19.497Z,99.90
2018-04-24T10:40:45.584Z,99.90
2018-04-24T10:43:11.707Z,99.90
2018-04-24T10:45:37.862Z,99.90
2018-04-24T10:48:04.165Z,99.90
2018-04-24T10:50:30.181Z,99.90
2018-04-24T10:52:56.295Z,99.90
2018-04-24T10:55:23.106Z,99.90
2018-04-24T10:57:49.230Z,99.90
2018-04-24T11:00:15.356Z,99.90
2018-04-24T11:02:41.462Z,99.90
2018-04-24T11:05:07.579Z,99.90
2018-04-24T11:07:33.672Z,99.90
2018-04-24T11:09:59.782Z,99.90
2018-04-24T11:12:26.602Z,99.90
2018-04-24T11:14:52.724Z,99.90
2018-04-24T11:17:18.815Z,99.90
2018-04-24T11:19:45.680Z,99.90
2018-04-24T11:22:12.538Z,99.90
2018-04-24T11:24:39.394Z,99.90
2018-04-24T11:27:06.215Z,99.90
2018-04-24T11:29:32.342Z,99.90
2018-04-24T11:31:58.455Z,99.90
2018-04-24T11:34:24.546Z,99.90
2018-04-24T11:36:51.409Z,99.90
2018-04-24T11:39:18.218Z,99.90
2018-04-24T11:41:44.314Z,99.90
2018-04-24T11:44:11.166Z,99.90
2018-04-24T11:46:37.254Z,99.90
2018-04-24T11:49:03.344Z,99.90
2018-04-24T11:51:29.446Z,99.90
2018-04-24T11:53:55.550Z,99.90
2018-04-24T11:56:21.629Z,99.90
2018-04-24T11:58:47.826Z,99.90
2018-04-24T12:01:13.838Z,99.90
2018-04-24T12:03:40.694Z,99.90
2018-04-24T12:06:06.775Z,99.90
2018-04-24T12:08:32.849Z,99.90
2018-04-24T12:10:59.710Z,99.90
2018-04-24T12:13:26.550Z,99.90
2018-04-24T12:15:52.641Z,99.90
2018-04-24T12:18:18.731Z,99.90
2018-04-24T12:20:44.818Z,99.90
2018-04-24T12:23:10.910Z,99.90
2018-04-24T12:25:37.014Z,99.90
2018-04-24T12:28:03.102Z,99.90
2018-04-24T12:30:30.010Z,99.90
2018-04-24T12:32:56.143Z,99.90
2018-04-24T12:35:22.214Z,99.90
2018-04-24T12:37:48.323Z,99.90
2018-04-24T12:40:14.390Z,99.90
2018-04-24T12:42:40.463Z,99.90
2018-04-24T12:45:06.573Z,99.90
2018-04-24T12:47:32.670Z,99.90
2018-04-24T12:49:58.737Z,99.90
2018-04-24T12:52:24.834Z,99.90
2018-04-24T12:54:50.934Z,99.90
2018-04-24T12:57:17.743Z,99.90
2018-04-24T12:59:43.883Z,99.90
2018-04-24T13:02:09.974Z,99.90
2018-04-24T13:04:36.811Z,99.90
2018-04-24T13:07:02.882Z,99.90
2018-04-24T13:09:28.996Z,99.90
2018-04-24T13:11:55.818Z,99.90
2018-04-24T13:14:21.890Z,99.90
2018-04-24T13:16:48.798Z,99.90
2018-04-24T13:19:14.893Z,99.90
2018-04-24T13:21:41.788Z,99.90
2018-04-24T13:24:07.849Z,99.90
2018-04-24T13:26:33.945Z,99.90
2018-04-24T13:29:00.025Z,99.90
2018-04-24T13:31:26.125Z,99.90
2018-04-24T13:33:52.193Z,99.90
2018-04-24T13:36:18.294Z,99.90
2018-04-24T13:38:44.367Z,99.90
2018-04-24T13:41:10.535Z,99.90
2018-04-24T13:43:36.542Z,99.90
2018-04-24T13:46:02.684Z,99.90
2018-04-24T13:48:28.794Z,99.90
2018-04-24T13:50:54.863Z,99.90
2018-04-24T13:53:20.970Z,99.90
2018-04-24T13:55:47.070Z,99.90
2018-04-24T13:58:13.922Z,99.80
2018-04-24T14:00:40.151Z,99.60
2018-04-24T14:03:06.276Z,96.80
2018-04-24T14:05:32.371Z,96.00
2018-04-24T14:07:58.494Z,94.60
2018-04-24T14:10:25.316Z,86.30
2018-04-24T14:12:51.428Z,85.90
2018-04-24T14:15:17.534Z,90.00
2018-04-24T14:17:43.640Z,92.80
2018-04-24T14:20:09.751Z,90.50
2018-04-24T14:22:35.862Z,91.10
2018-04-24T14:25:01.968Z,84.70
2018-04-24T14:27:28.798Z,73.10
2018-04-24T14:29:54.926Z,73.10
2018-04-24T14:32:21.006Z,74.40
2018-04-24T14:34:47.883Z,65.30
2018-04-24T14:37:13.994Z,65.80
2018-04-24T14:39:40.966Z,67.80
2018-04-24T14:42:07.048Z,67.70
2018-04-24T14:44:33.158Z,64.50
2018-04-24T14:46:59.272Z,61.80
2018-04-24T14:49:26.091Z,64.40
2018-04-24T14:51:52.282Z,64.30
2018-04-24T14:54:18.438Z,62.30
2018-04-24T14:56:44.554Z,60.50
2018-04-24T14:59:10.637Z,58.60
2018-04-24T15:01:36.758Z,62.80
2018-04-24T15:04:02.835Z,62.50
2018-04-24T15:06:29.044Z,67.30
2018-04-24T15:08:55.135Z,59.00
2018-04-24T15:11:22.020Z,60.60
2018-04-24T15:13:48.190Z,60.50
2018-04-24T15:16:14.362Z,58.40
2018-04-24T15:18:41.266Z,61.90
2018-04-24T15:21:08.310Z,59.70
2018-04-24T15:23:34.444Z,59.80
2018-04-24T15:26:00.525Z,61.90
2018-04-24T15:28:26.638Z,60.90
2018-04-24T15:30:53.490Z,59.10
2018-04-24T15:33:19.562Z,59.20
2018-04-24T15:35:45.653Z,60.70
2018-04-24T15:38:11.717Z,62.30
2018-04-24T15:40:37.818Z,66.40
2018-04-24T15:43:04.623Z,62.80
2018-04-24T15:45:30.754Z,62.90
2018-04-24T15:47:56.882Z,63.40
2018-04-24T15:50:23.000Z,65.30
2018-04-24T15:52:49.099Z,66.10
2018-04-24T15:55:15.291Z,69.00
2018-04-24T15:57:41.516Z,67.60
2018-04-24T16:00:07.586Z,72.00
2018-04-24T16:02:33.724Z,68.20
2018-04-24T16:04:59.818Z,67.40
2018-04-24T16:07:25.894Z,70.50
2018-04-24T16:09:52.010Z,69.80
2018-04-24T16:12:18.194Z,72.20
2018-04-24T16:14:44.298Z,74.80
2018-04-24T16:17:10.405Z,71.10
2018-04-24T16:19:37.289Z,75.30
2018-04-24T16:22:03.468Z,75.20
2018-04-24T16:24:29.588Z,71.80
2018-04-24T16:26:55.691Z,74.90
2018-04-24T16:29:21.874Z,70.90
2018-04-24T16:31:47.986Z,69.00
2018-04-24T16:34:14.119Z,67.90
2018-04-24T16:36:40.234Z,70.00
2018-04-24T16:39:06.334Z,73.00
2018-04-24T16:41:32.470Z,68.60
2018-04-24T16:43:58.552Z,69.70
2018-04-24T16:46:24.793Z,73.40
2018-04-24T16:48:50.991Z,71.20
2018-04-24T16:51:17.074Z,75.10
2018-04-24T16:53:43.974Z,73.60
2018-04-24T16:56:10.183Z,73.60
2018-04-24T16:58:36.299Z,75.80
2018-04-24T17:01:03.164Z,77.50
2018-04-24T17:03:29.467Z,77.20
2018-04-24T17:05:55.533Z,76.70
2018-04-24T17:08:22.457Z,78.40
2018-04-24T17:10:48.562Z,78.50
2018-04-24T17:13:14.630Z,78.40
2018-04-24T17:15:40.731Z,78.50
2018-04-24T17:18:06.863Z,77.50
2018-04-24T17:20:32.938Z,77.70
2018-04-24T17:22:59.039Z,81.10
2018-04-24T17:25:25.147Z,83.50
2018-04-24T17:27:51.963Z,83.70
2018-04-24T17:30:18.103Z,83.70
2018-04-24T17:32:44.179Z,82.70
2018-04-24T17:35:10.273Z,83.80
2018-04-24T17:37:36.341Z,86.40
2018-04-24T17:40:02.446Z,84.00
2018-04-24T17:42:28.581Z,93.40
2018-04-24T17:44:54.707Z,94.30
2018-04-24T17:47:20.866Z,98.30
2018-04-24T17:49:46.934Z,99.90
2018-04-24T17:52:13.053Z,99.90
2018-04-24T17:54:39.126Z,99.90
2018-04-24T17:57:05.994Z,99.90
2018-04-24T17:59:32.074Z,99.90
2018-04-24T18:01:58.287Z,99.90
2018-04-24T18:04:24.382Z,99.90
2018-04-24T18:06:50.479Z,99.90
2018-04-24T18:09:16.626Z,99.90
2018-04-24T18:11:42.752Z,99.90
2018-04-24T18:14:08.874Z,99.90
2018-04-24T18:16:35.706Z,99.90
2018-04-24T18:19:01.766Z,99.90
2018-04-24T18:21:27.901Z,99.90
2018-04-24T18:23:54.126Z,99.90
2018-04-24T18:26:21.014Z,99.90
2018-04-24T18:28:47.154Z,99.90
2018-04-24T18:31:13.258Z,99.90
2018-04-24T18:33:40.120Z,99.90
2018-04-24T18:36:06.950Z,99.90
2018-04-24T18:38:33.019Z,99.90
2018-04-24T18:40:59.115Z,99.90
2018-04-24T18:43:25.191Z,99.90
2018-04-24T18:45:52.094Z,99.90
2018-04-24T18:48:18.190Z,99.90
2018-04-24T18:50:45.002Z,99.90
2018-04-24T18:53:11.131Z,99.90
2018-04-24T18:55:37.176Z,99.90
2018-04-24T18:58:03.297Z,99.90
2018-04-24T19:00:29.370Z,99.90
2018-04-24T19:02:55.494Z,99.90
2018-04-24T19:05:21.575Z,99.90
2018-04-24T19:07:47.708Z,99.90
2018-04-24T19:10:14.502Z,99.90
2018-04-24T19:12:40.612Z,99.90
2018-04-24T19:15:06.694Z,99.90
2018-04-24T19:17:32.814Z,99.90
2018-04-24T19:19:58.914Z,99.90
2018-04-24T19:22:25.730Z,99.90
2018-04-24T19:24:57.853Z,99.90
2018-04-24T19:27:23.912Z,99.90
2018-04-24T19:29:50.008Z,99.90
2018-04-24T19:32:22.991Z,99.90
2018-04-24T19:34:49.089Z,99.90
2018-04-24T19:37:15.954Z,99.90
2018-04-24T19:39:48.243Z,99.90
2018-04-24T19:42:14.406Z,99.90
2018-04-24T19:44:40.486Z,99.90
2018-04-24T19:47:06.552Z,99.90
2018-04-24T19:49:39.505Z,99.90
2018-04-24T19:52:06.382Z,99.90
2018-04-24T19:54:32.596Z,99.90
2018-04-24T19:56:59.413Z,99.90
2018-04-24T19:59:25.501Z,99.90
2018-04-24T20:01:51.666Z,99.90
2018-04-24T20:04:17.806Z,99.90
2018-04-24T20:06:43.973Z,99.90
2018-04-24T20:09:10.098Z,99.90
2018-04-24T20:11:36.218Z,99.90
2018-04-24T20:14:02.301Z,99.90
2018-04-24T20:16:28.413Z,99.90
2018-04-24T20:18:54.496Z,99.90
2018-04-24T20:21:21.342Z,99.90
2018-04-24T20:23:47.431Z,99.90
2018-04-24T20:26:13.499Z,99.90
2018-04-24T20:28:39.720Z,99.90
2018-04-24T20:31:05.874Z,99.90
2018-04-24T20:33:31.958Z,99.90
2018-04-24T20:35:58.798Z,99.90
2018-04-24T20:38:25.672Z,99.90
2018-04-24T20:40:51.763Z,99.90
2018-04-24T20:43:17.834Z,99.90
2018-04-24T20:45:44.731Z,99.90
2018-04-24T20:48:10.890Z,99.90
2018-04-24T20:50:37.042Z,99.90
2018-04-24T20:53:03.134Z,99.90
2018-04-24T20:55:29.266Z,99.90
2018-04-24T20:57:55.397Z,99.90
2018-04-24T21:00:21.474Z,99.90
2018-04-24T21:02:47.582Z,99.90
2018-04-24T21:05:13.664Z,99.90
2018-04-24T21:07:39.778Z,99.90
2018-04-24T21:10:05.855Z,99.90
2018-04-24T21:12:32.070Z,99.90
2018-04-24T21:14:58.186Z,99.90
2018-04-24T21:17:24.331Z,99.90
2018-04-24T21:19:50.458Z,99.90
2018-04-24T21:22:16.593Z,99.90
2018-04-24T21:24:43.410Z,99.90
2018-04-24T21:27:09.633Z,99.90
2018-04-24T21:29:35.759Z,99.90
2018-04-24T21:32:01.890Z,99.90
2018-04-24T21:34:28.011Z,99.90
2018-04-24T21:36:54.158Z,99.90
2018-04-24T21:39:20.249Z,99.90
2018-04-24T21:41:47.058Z,99.90
2018-04-24T21:44:13.163Z,99.90
2018-04-24T21:46:39.231Z,99.90
2018-04-24T21:49:05.310Z,99.90
2018-04-24T21:51:31.515Z,99.90
2018-04-24T21:53:57.596Z,99.90
2018-04-24T21:56:24.481Z,99.90
2018-04-24T21:58:50.556Z,99.90
2018-04-24T22:01:16.639Z,99.90
2018-04-24T22:03:43.503Z,99.90
2018-04-24T22:06:09.590Z,99.90
2018-04-24T22:08:35.687Z,99.90
2018-04-24T22:11:01.781Z,99.90
2018-04-24T22:13:27.893Z,99.90
2018-04-24T22:15:53.995Z,99.90
2018-04-24T22:18:20.124Z,99.90
2018-04-24T22:20:46.993Z,99.90
2018-04-24T22:23:13.066Z,99.90
2018-04-24T22:25:39.178Z,99.90
2018-04-24T22:28:05.278Z,99.90
2018-04-24T22:30:32.155Z,99.90
2018-04-24T22:32:58.401Z,99.90
2018-04-24T22:35:24.362Z,99.90
2018-04-24T22:37:50.443Z,99.90
2018-04-24T22:40:17.350Z,99.90
2018-04-24T22:42:43.422Z,99.90
2018-04-24T22:45:09.531Z,99.90
2018-04-24T22:47:35.629Z,99.90
2018-04-24T22:50:02.463Z,99.90
2018-04-24T22:52:28.577Z,99.90
2018-04-24T22:54:54.718Z,99.90
2018-04-24T22:57:20.830Z,99.90
2018-04-24T22:59:46.907Z,99.90
2018-04-24T23:02:13.018Z,99.90
2018-04-24T23:04:39.118Z,99.90
2018-04-24T23:07:05.239Z,99.90
2018-04-24T23:09:31.335Z,99.90
2018-04-24T23:12:09.838Z,99.90
2018-04-24T23:14:48.239Z,99.90
2018-04-24T23:17:26.614Z,99.90
2018-04-24T23:20:05.066Z,99.90
2018-04-24T23:22:31.171Z,99.90
2018-04-24T23:24:57.246Z,99.90
2018-04-24T23:27:23.317Z,99.90
2018-04-24T23:29:50.174Z,99.90
2018-04-24T23:32:16.993Z,99.90
2018-04-24T23:34:43.113Z,99.90
2018-04-24T23:37:09.207Z,99.90
2018-04-24T23:39:36.017Z,99.90
2018-04-24T23:42:02.123Z,99.90
2018-04-24T23:44:28.203Z,99.90
2018-04-24T23:46:54.307Z,99.90
2018-04-24T23:49:20.384Z,99.90
2018-04-24T23:51:46.595Z,99.90
2018-04-24T23:54:12.697Z,99.90
2018-04-24T23:56:38.807Z,99.90
2018-04-24T23:59:04.887Z,99.90
